Time;durP1;ratioP1;P1;durP2;ratioP2;P2;SDS_P1;SDS_P2;PMS_P1;PMS_P2;Temp;Humidity;BMP_temperature;BMP_pressure;BME280_temperature;BME280_humidity;BME280_pressure;Samples;Min_cycle;Max_cycle;Signal;HPM_P1;HPM_P2
2021/10/24 00:01:59;;;;;;;25.10;12.58;;;;;;;2.98;60.18;100824.84;1773737;79;22490;-66
2021/10/24 00:04:26;;;;;;;22.25;11.85;;;;;;;2.96;60.40;100820.16;1757507;79;21039;-65
2021/10/24 00:06:52;;;;;;;21.97;11.68;;;;;;;2.97;60.42;100820.55;1768101;79;20985;-65
2021/10/24 00:09:18;;;;;;;21.97;11.83;;;;;;;2.96;60.47;100823.61;1782017;79;21426;-65
2021/10/24 00:11:45;;;;;;;21.25;12.20;;;;;;;2.93;60.53;100817.69;1775664;79;21477;-66
2021/10/24 00:14:12;;;;;;;26.05;12.68;;;;;;;2.94;60.59;100824.59;1769231;79;22588;-66
2021/10/24 00:16:38;;;;;;;21.48;11.83;;;;;;;2.92;60.62;100825.97;1769271;79;21426;-65
2021/10/24 00:19:05;;;;;;;25.75;12.78;;;;;;;2.93;60.58;100822.45;1738901;81;21319;-65
2021/10/24 00:21:32;;;;;;;26.93;12.03;;;;;;;2.93;60.49;100815.08;1763164;80;21004;-65
2021/10/24 00:23:58;;;;;;;24.05;12.07;;;;;;;2.93;60.47;100813.77;1759338;80;21052;-66
2021/10/24 00:26:25;;;;;;;22.77;11.43;;;;;;;2.92;60.51;100812.92;1747957;81;21808;-66
2021/10/24 00:28:51;;;;;;;23.20;12.00;;;;;;;2.91;60.48;100819.05;1755803;80;21099;-66
2021/10/24 00:31:17;;;;;;;26.00;11.60;;;;;;;2.91;60.46;100812.98;1752681;80;21083;-65
2021/10/24 00:33:44;;;;;;;21.48;11.22;;;;;;;2.90;60.43;100817.36;1754472;80;20976;-67
2021/10/24 00:36:10;;;;;;;24.43;11.80;;;;;;;2.87;60.39;100815.70;1755816;80;21003;-65
2021/10/24 00:38:37;;;;;;;25.75;13.35;;;;;;;2.86;60.42;100817.07;1750155;81;21798;-65
2021/10/24 00:41:05;;;;;;;24.85;12.07;;;;;;;2.83;60.41;100814.59;1760129;80;21449;-65
2021/10/24 00:43:32;;;;;;;25.27;12.65;;;;;;;2.79;60.44;100809.94;1756022;80;21043;-65
2021/10/24 00:45:58;;;;;;;25.90;12.90;;;;;;;2.75;60.57;100808.38;1726550;81;21009;-65
2021/10/24 00:48:25;;;;;;;25.48;12.18;;;;;;;2.70;60.68;100815.55;1696359;83;21436;-66
2021/10/24 00:50:52;;;;;;;22.10;11.97;;;;;;;2.67;60.82;100819.56;1736712;82;23033;-66
2021/10/24 00:53:19;;;;;;;21.68;11.83;;;;;;;2.64;61.13;100816.24;1759158;81;20971;-66
2021/10/24 00:55:46;;;;;;;22.30;11.05;;;;;;;2.61;61.28;100815.92;1767007;79;20980;-66
2021/10/24 00:58:16;;;;;;;25.15;11.38;;;;;;;2.62;61.35;100824.13;1808248;79;20932;-65
2021/10/24 01:00:42;;;;;;;23.73;11.68;;;;;;;2.64;61.31;100822.77;1787454;79;20944;-66
2021/10/24 01:03:09;;;;;;;23.92;11.60;;;;;;;2.64;61.42;100824.06;1782635;80;21813;-66
2021/10/24 01:05:36;;;;;;;20.52;10.78;;;;;;;2.66;61.57;100827.00;1780308;80;20984;-65
2021/10/24 01:08:04;;;;;;;20.85;11.00;;;;;;;2.69;61.66;100827.33;1760137;80;21438;-66
2021/10/24 01:10:31;;;;;;;21.77;10.58;;;;;;;2.70;61.72;100829.02;1778899;80;21083;-65
2021/10/24 01:12:57;;;;;;;18.17;10.00;;;;;;;2.76;61.77;100835.31;1784719;80;21376;-66
2021/10/24 01:15:23;;;;;;;18.92;9.70;;;;;;;2.81;61.76;100832.08;1779239;80;21806;-66
2021/10/24 01:17:51;;;;;;;17.98;9.95;;;;;;;2.86;61.76;100836.18;1758340;81;21035;-66
2021/10/24 01:20:24;;;;;;;21.35;10.00;;;;;;;2.94;61.73;100837.19;1734732;81;22463;-66
2021/10/24 01:22:52;;;;;;;23.30;9.98;;;;;;;3.00;61.65;100847.84;1712134;82;21046;-66
2021/10/24 01:25:19;;;;;;;16.57;9.20;;;;;;;3.04;61.60;100843.73;1775681;80;21036;-66
2021/10/24 01:27:48;;;;;;;16.55;8.78;;;;;;;3.09;61.55;100840.95;1785334;80;20948;-65
2021/10/24 01:30:15;;;;;;;17.23;8.88;;;;;;;3.13;61.59;100848.57;1781447;80;21057;-66
2021/10/24 01:32:41;;;;;;;16.40;8.15;;;;;;;3.18;61.69;100842.30;1777883;80;21007;-67
2021/10/24 01:35:09;;;;;;;17.65;8.55;;;;;;;3.23;61.67;100850.34;1778390;80;21030;-68
2021/10/24 01:37:38;;;;;;;13.95;7.55;;;;;;;3.29;61.59;100845.34;1768106;80;21071;-66
2021/10/24 01:40:08;;;;;;;23.15;8.38;;;;;;;3.34;61.45;100848.59;1777722;80;21820;-66
2021/10/24 01:42:47;;;;;;;16.87;8.20;;;;;;;3.37;61.51;100847.99;1769959;80;20980;-65
2021/10/24 01:45:15;;;;;;;18.55;8.18;;;;;;;3.41;61.56;100846.97;1782228;80;21032;-65
2021/10/24 01:47:42;;;;;;;18.57;8.25;;;;;;;3.47;61.49;100844.99;1778342;80;21053;-67
2021/10/24 01:50:09;;;;;;;15.53;8.13;;;;;;;3.52;61.48;100846.97;1771054;80;21026;-66
2021/10/24 01:52:41;;;;;;;15.75;7.72;;;;;;;3.58;61.54;100850.64;1785167;79;22471;-65
2021/10/24 01:55:12;;;;;;;13.18;7.40;;;;;;;3.63;61.63;100850.81;1770259;80;21027;-64
2021/10/24 01:57:41;;;;;;;16.27;7.00;;;;;;;3.69;61.62;100846.64;1779333;80;21036;-65
2021/10/24 02:00:10;;;;;;;16.20;7.00;;;;;;;3.77;61.60;100843.70;1760241;80;21083;-67
2021/10/24 02:02:48;;;;;;;13.62;6.55;;;;;;;3.83;61.52;100847.33;1770554;80;21043;-65
2021/10/24 02:05:16;;;;;;;13.88;6.10;;;;;;;3.91;61.50;100849.61;1774689;80;21861;-66
2021/10/24 02:07:43;;;;;;;15.08;6.17;;;;;;;3.98;61.40;100851.89;1752329;80;20852;-69
2021/10/24 02:10:14;;;;;;;14.50;6.17;;;;;;;4.05;61.27;100847.22;1779776;80;21091;-65
2021/10/24 02:12:41;;;;;;;13.38;5.95;;;;;;;4.13;61.06;100850.80;1763714;80;21019;-64
2021/10/24 02:15:11;;;;;;;6.58;4.12;;;;;;;4.23;60.91;100853.39;1721066;81;20959;-65
2021/10/24 02:17:38;;;;;;;11.22;5.97;;;;;;;4.30;60.78;100851.73;1720121;82;21818;-66
2021/10/24 02:20:07;;;;;;;8.50;4.80;;;;;;;4.36;60.67;100853.23;1729242;82;20996;-66
2021/10/24 02:22:35;;;;;;;10.53;5.70;;;;;;;4.42;60.55;100852.94;1738122;82;21014;-66
2021/10/24 02:25:05;;;;;;;12.95;5.95;;;;;;;4.47;60.40;100850.97;1774495;80;20936;-65
2021/10/24 02:27:34;;;;;;;12.05;5.72;;;;;;;4.54;60.29;100860.70;1763803;80;21014;-65
2021/10/24 02:30:01;;;;;;;13.55;5.85;;;;;;;4.58;60.21;100860.47;1773223;80;21809;-65
2021/10/24 02:32:30;;;;;;;10.45;4.65;;;;;;;4.62;60.11;100861.16;1783088;80;21038;-65
2021/10/24 02:35:02;;;;;;;10.80;5.72;;;;;;;4.69;60.05;100865.19;1784288;80;20967;-66
2021/10/24 02:37:35;;;;;;;12.20;6.30;;;;;;;4.74;59.87;100867.61;1710109;83;21008;-65
2021/10/24 02:40:05;;;;;;;11.55;5.62;;;;;;;4.78;59.76;100864.76;1714959;83;21046;-66
2021/10/24 02:42:35;;;;;;;9.75;5.80;;;;;;;4.81;59.68;100868.98;1707319;83;20977;-65
2021/10/24 02:45:05;;;;;;;9.80;5.35;;;;;;;4.86;59.65;100872.25;1733038;81;21063;-65
2021/10/24 02:47:33;;;;;;;13.93;6.22;;;;;;;4.87;59.53;100874.79;1756399;80;20954;-66
2021/10/24 02:50:01;;;;;;;11.73;6.25;;;;;;;4.89;59.46;100874.25;1733419;81;20988;-67
2021/10/24 02:52:30;;;;;;;12.28;5.62;;;;;;;4.92;59.44;100874.55;1766672;80;21419;-67
2021/10/24 02:54:58;;;;;;;8.18;4.80;;;;;;;4.94;59.42;100875.36;1736473;81;21834;-64
2021/10/24 02:57:26;;;;;;;12.53;6.12;;;;;;;4.96;59.36;100880.05;1736016;81;20871;-65
2021/10/24 02:59:54;;;;;;;9.50;5.55;;;;;;;4.97;59.38;100874.35;1760352;79;21069;-67
2021/10/24 03:02:21;;;;;;;13.00;6.72;;;;;;;4.98;59.36;100876.04;1769891;79;21003;-65
2021/10/24 03:04:48;;;;;;;9.90;5.60;;;;;;;4.98;59.38;100872.11;1766425;81;21056;-65
2021/10/24 03:07:15;;;;;;;15.32;6.55;;;;;;;4.99;59.44;100867.27;1758833;79;21834;-65
2021/10/24 03:09:42;;;;;;;9.28;5.92;;;;;;;5.01;59.40;100869.34;1773473;79;21395;-65
2021/10/24 03:12:12;;;;;;;12.90;5.78;;;;;;;5.02;59.37;100872.34;1773343;79;21003;-65
2021/10/24 03:14:40;;;;;;;12.18;5.83;;;;;;;5.01;59.37;100875.42;1766329;81;20982;-65
2021/10/24 03:17:08;;;;;;;15.80;6.15;;;;;;;5.02;59.30;100876.27;1771028;79;20991;-65
2021/10/24 03:19:36;;;;;;;12.18;5.92;;;;;;;5.05;59.31;100874.83;1765741;79;22613;-65
2021/10/24 03:22:04;;;;;;;11.22;5.25;;;;;;;5.04;59.32;100875.30;1765114;79;20952;-65
2021/10/24 03:24:31;;;;;;;10.53;5.37;;;;;;;5.06;59.29;100877.84;1765676;79;21036;-65
2021/10/24 03:26:58;;;;;;;11.05;5.45;;;;;;;5.07;59.31;100883.45;1779558;79;21066;-65
2021/10/24 03:29:25;;;;;;;11.05;5.40;;;;;;;5.10;59.27;100881.52;1783686;79;21027;-65
2021/10/24 03:31:52;;;;;;;10.98;5.87;;;;;;;5.13;59.26;100885.33;1774846;79;21835;-67
2021/10/24 03:34:19;;;;;;;11.00;5.22;;;;;;;5.13;59.29;100885.78;1801110;79;21027;-65
2021/10/24 03:36:47;;;;;;;12.30;5.53;;;;;;;5.15;59.34;100887.40;1773229;79;20940;-64
2021/10/24 03:39:15;;;;;;;10.98;5.53;;;;;;;5.15;59.31;100888.70;1779355;80;20985;-66
2021/10/24 03:41:43;;;;;;;10.63;4.85;;;;;;;5.17;59.33;100886.86;1766247;80;21430;-65
2021/10/24 03:44:12;;;;;;;12.45;5.40;;;;;;;5.16;59.38;100886.94;1759290;81;21844;-66
2021/10/24 03:46:38;;;;;;;11.35;5.55;;;;;;;5.15;59.38;100890.02;1757307;80;21079;-66
2021/10/24 03:49:05;;;;;;;10.20;5.25;;;;;;;5.16;59.40;100889.09;1766949;80;21395;-65
2021/10/24 03:51:32;;;;;;;10.85;5.25;;;;;;;5.17;59.42;100894.71;1766523;81;20992;-66
2021/10/24 03:53:59;;;;;;;11.18;5.78;;;;;;;5.20;59.42;100891.55;1766715;81;21008;-67
2021/10/24 03:56:26;;;;;;;13.40;6.20;;;;;;;5.21;59.45;100897.17;1766413;81;21851;-65
2021/10/24 03:58:54;;;;;;;11.75;5.90;;;;;;;5.21;59.39;100894.55;1766633;81;20959;-66
2021/10/24 04:01:20;;;;;;;9.75;5.30;;;;;;;5.22;59.41;100897.13;1760526;81;21154;-66
2021/10/24 04:03:47;;;;;;;8.78;5.50;;;;;;;5.22;59.38;100906.29;1754067;81;20985;-63
2021/10/24 04:06:15;;;;;;;11.18;5.58;;;;;;;5.23;59.43;100897.51;1741579;81;20837;-64
2021/10/24 04:08:42;;;;;;;9.78;5.30;;;;;;;5.24;59.41;100895.73;1775648;80;21826;-64
2021/10/24 04:11:10;;;;;;;12.68;5.95;;;;;;;5.24;59.53;100902.28;1771566;80;21052;-64
2021/10/24 04:13:38;;;;;;;10.03;5.30;;;;;;;5.23;59.56;100903.20;1766233;80;21074;-64
2021/10/24 04:16:06;;;;;;;11.55;5.25;;;;;;;5.23;59.57;100899.28;1765255;81;21064;-64
2021/10/24 04:18:51;;;;;;;7.72;4.45;;;;;;;5.23;59.64;100907.98;1770416;79;21035;-67
2021/10/24 04:21:17;;;;;;;13.85;5.53;;;;;;;5.24;59.68;100910.14;1765210;79;21798;-68
2021/10/24 04:23:44;;;;;;;9.15;5.15;;;;;;;5.23;59.72;100908.45;1761712;81;20857;-69
2021/10/24 04:26:12;;;;;;;12.30;5.78;;;;;;;5.24;59.78;100916.22;1765158;81;21040;-69
2021/10/24 04:28:41;;;;;;;12.82;5.25;;;;;;;5.26;59.84;100921.38;1743604;81;41002;-67
2021/10/24 04:31:07;;;;;;;10.15;5.22;;;;;;;5.26;59.90;100916.14;1763645;80;21134;-67
2021/10/24 04:33:35;;;;;;;10.03;5.15;;;;;;;5.27;59.91;100918.69;1767276;80;21392;-67
2021/10/24 04:36:03;;;;;;;9.08;4.85;;;;;;;5.28;60.02;100916.91;1734555;81;21375;-67
2021/10/24 04:38:32;;;;;;;9.93;5.00;;;;;;;5.28;60.10;100920.84;1738990;81;21055;-67
2021/10/24 04:40:59;;;;;;;12.50;5.25;;;;;;;5.28;60.18;100920.84;1733967;81;22167;-67
2021/10/24 04:43:26;;;;;;;8.90;5.08;;;;;;;5.29;60.23;100924.69;1734912;82;21002;-67
2021/10/24 04:45:52;;;;;;;8.98;4.53;;;;;;;5.31;60.17;100924.64;1769163;80;21802;-67
2021/10/24 04:48:20;;;;;;;8.93;4.90;;;;;;;5.33;60.23;100925.41;1775494;80;21004;-67
2021/10/24 04:50:47;;;;;;;9.23;4.70;;;;;;;5.42;60.07;100932.35;1769670;81;20937;-67
2021/10/24 04:53:15;;;;;;;11.10;5.30;;;;;;;5.44;60.04;100936.20;1744323;81;21630;-67
2021/10/24 04:55:44;;;;;;;9.63;3.92;;;;;;;5.45;60.00;100937.44;1769732;81;20963;-66
2021/10/24 04:58:11;;;;;;;13.30;5.47;;;;;;;5.48;60.10;100942.13;1772387;80;21827;-67
2021/10/24 05:00:39;;;;;;;8.40;4.92;;;;;;;5.47;60.15;100942.59;1769079;80;20985;-68
2021/10/24 05:03:07;;;;;;;10.63;5.37;;;;;;;5.48;60.21;100946.05;1753624;79;21378;-67
2021/10/24 05:05:34;;;;;;;11.60;5.53;;;;;;;5.48;60.26;100949.98;1770461;79;21445;-67
2021/10/24 05:08:00;;;;;;;8.20;4.78;;;;;;;5.51;60.30;100948.55;1775111;80;21016;-67
2021/10/24 05:10:27;;;;;;;9.33;5.40;;;;;;;5.54;60.38;100953.16;1786888;80;22174;-67
2021/10/24 05:12:54;;;;;;;12.13;5.28;;;;;;;5.54;60.38;100953.16;1768858;79;21091;-67
2021/10/24 05:15:21;;;;;;;12.70;5.25;;;;;;;5.52;60.41;100953.70;1769510;79;21058;-66
2021/10/24 05:17:50;;;;;;;10.53;5.12;;;;;;;5.50;60.47;100954.25;1788270;79;21047;-67
2021/10/24 05:20:16;;;;;;;11.73;5.03;;;;;;;5.50;60.46;100961.23;1751468;81;21439;-67
2021/10/24 05:22:43;;;;;;;10.20;4.75;;;;;;;5.49;60.49;100962.16;1762562;81;21850;-66
2021/10/24 05:25:09;;;;;;;10.63;5.47;;;;;;;5.51;60.55;100969.52;1764833;81;20958;-66
2021/10/24 05:27:38;;;;;;;10.32;5.35;;;;;;;5.48;60.58;100966.55;1770372;80;20964;-66
2021/10/24 05:30:07;;;;;;;11.15;4.85;;;;;;;5.50;60.62;100975.21;1769800;81;21023;-67
2021/10/24 05:32:34;;;;;;;11.95;5.15;;;;;;;5.51;60.70;100978.22;1769767;81;20959;-70
2021/10/24 05:35:03;;;;;;;11.33;5.08;;;;;;;5.54;60.75;100988.54;1766287;81;22518;-69
2021/10/24 05:37:30;;;;;;;10.98;5.15;;;;;;;5.57;60.77;100984.91;1740736;80;21003;-70
2021/10/24 05:39:56;;;;;;;8.90;4.87;;;;;;;5.58;60.82;100995.31;1769851;81;20959;-69
2021/10/24 05:42:25;;;;;;;10.48;5.22;;;;;;;5.62;60.86;100996.87;1764922;81;21357;-69
2021/10/24 05:44:51;;;;;;;15.63;5.65;;;;;;;5.66;60.89;101002.34;1769904;81;21041;-66
2021/10/24 05:47:18;;;;;;;14.75;5.75;;;;;;;5.69;60.93;100999.59;1766423;80;22445;-67
2021/10/24 05:49:44;;;;;;;8.08;4.80;;;;;;;5.72;60.93;100995.97;1768992;80;21470;-69
2021/10/24 05:52:13;;;;;;;12.07;5.33;;;;;;;5.76;60.98;101001.43;1764741;81;21015;-67
2021/10/24 05:54:40;;;;;;;11.78;5.62;;;;;;;5.80;60.98;101012.63;1735143;81;21470;-66
2021/10/24 05:57:11;;;;;;;10.30;4.97;;;;;;;5.84;61.04;101018.09;1766084;81;20947;-68
2021/10/24 05:59:46;;;;;;;8.70;4.60;;;;;;;5.90;61.06;101020.42;1762262;80;22693;-67
2021/10/24 06:02:14;;;;;;;13.78;5.87;;;;;;;5.93;61.00;101023.77;1765703;81;21038;-68
2021/10/24 06:05:00;;;;;;;10.48;5.42;;;;;;;5.94;61.00;101024.61;1745095;81;21019;-68
2021/10/24 06:07:29;;;;;;;8.30;4.87;;;;;;;5.96;61.01;101026.69;1733454;82;21363;-69
2021/10/24 06:10:01;;;;;;;7.75;4.92;;;;;;;5.98;61.07;101031.39;1748051;81;21063;-70
2021/10/24 06:12:51;;;;;;;12.70;5.47;;;;;;;6.02;61.10;101032.48;1764350;79;22107;-68
2021/10/24 06:15:03;;;;;;;13.43;5.90;;;;;;;6.07;61.11;101033.55;1757167;81;21035;-68
2021/10/24 06:17:30;;;;;;;12.55;5.92;;;;;;;6.11;61.12;101040.83;1765868;81;21065;-67
2021/10/24 06:19:57;;;;;;;13.18;5.80;;;;;;;6.17;61.23;101040.03;1765166;81;21384;-68
2021/10/24 06:22:23;;;;;;;11.57;5.53;;;;;;;6.23;61.10;101037.11;1765022;81;21406;-69
2021/10/24 06:24:50;;;;;;;9.95;5.50;;;;;;;6.27;61.12;101037.36;1765368;81;22432;-67
2021/10/24 06:27:18;;;;;;;9.90;5.20;;;;;;;6.33;61.14;101040.58;1764461;79;20981;-68
2021/10/24 06:29:45;;;;;;;15.80;5.45;;;;;;;6.37;61.12;101036.42;1766073;81;20928;-69
2021/10/24 06:32:12;;;;;;;10.28;5.40;;;;;;;6.42;61.09;101040.11;1779633;80;21031;-67
2021/10/24 06:34:55;;;;;;;12.18;5.17;;;;;;;6.45;61.14;101043.41;1781140;80;21466;-66
2021/10/24 06:37:24;;;;;;;8.98;4.58;;;;;;;6.48;61.31;101049.84;1757252;81;21850;-67
2021/10/24 06:39:52;;;;;;;12.15;5.00;;;;;;;6.54;61.24;101042.94;1765757;81;20937;-68
2021/10/24 06:42:19;;;;;;;8.78;4.90;;;;;;;6.60;61.25;101045.72;1766480;79;20936;-67
2021/10/24 06:44:48;;;;;;;11.43;4.78;;;;;;;6.67;61.22;101044.95;1764471;79;21057;-69
2021/10/24 06:47:36;;;;;;;10.53;5.08;;;;;;;6.72;61.18;101046.84;1755552;79;21027;-67
2021/10/24 06:50:09;;;;;;;14.07;5.45;;;;;;;6.80;61.13;101050.77;1759169;80;21785;-68
2021/10/24 06:52:54;;;;;;;11.97;5.20;;;;;;;6.85;60.95;101050.08;1762354;80;21459;-67
2021/10/24 06:55:33;;;;;;;10.50;5.47;;;;;;;6.90;60.98;101053.75;1769109;79;21010;-67
2021/10/24 06:58:16;;;;;;;;;;;;;;;6.94;60.90;101053.96;1764400;80;21047;-67
2021/10/24 07:01:03;;;;;;;10.40;5.20;;;;;;;7.02;60.84;101053.55;1641366;85;20165;-67
2021/10/24 07:03:34;;;;;;;10.98;5.30;;;;;;;7.08;60.91;101063.74;1585923;87;21897;-67
2021/10/24 07:06:09;;;;;;;10.78;5.22;;;;;;;7.15;60.83;101062.49;1676923;80;21464;-68
2021/10/24 07:08:37;;;;;;;15.85;5.58;;;;;;;7.21;60.41;101063.92;1758975;79;21009;-68
2021/10/24 07:11:06;;;;;;;8.20;4.75;;;;;;;7.26;60.48;101069.32;1765738;79;21031;-68
2021/10/24 07:13:34;;;;;;;10.95;5.12;;;;;;;7.34;60.34;101067.59;1762504;81;21395;-69
2021/10/24 07:16:04;;;;;;;11.08;5.03;;;;;;;7.38;60.18;101067.33;1767650;80;21047;-69
2021/10/24 07:18:32;;;;;;;11.48;4.70;;;;;;;7.43;60.24;101068.37;1739066;81;21470;-69
2021/10/24 07:20:59;;;;;;;11.05;5.12;;;;;;;7.53;59.96;101071.34;1770049;79;21086;-69
2021/10/24 07:23:25;;;;;;;9.90;4.87;;;;;;;7.59;60.02;101076.27;1766157;79;21050;-69
2021/10/24 07:25:54;;;;;;;11.95;4.60;;;;;;;7.66;59.72;101078.47;1762209;79;21026;-68
2021/10/24 07:28:20;;;;;;;10.80;5.12;;;;;;;7.67;59.58;101084.58;1765342;80;21706;-71
2021/10/24 07:30:47;;;;;;;13.95;5.45;;;;;;;7.67;59.56;101084.11;1765301;79;20996;-68
2021/10/24 07:33:15;;;;;;;8.88;4.80;;;;;;;7.69;59.56;101080.92;1765988;81;20993;-68
2021/10/24 07:36:01;;;;;;;7.97;4.50;;;;;;;7.72;59.51;101083.40;1739059;81;21062;-68
2021/10/24 07:38:29;;;;;;;12.40;4.95;;;;;;;7.75;59.33;101077.11;1766030;79;21668;-72
2021/10/24 07:40:57;;;;;;;9.23;5.00;;;;;;;7.73;59.39;101079.83;1765718;81;21848;-69
2021/10/24 07:43:26;;;;;;;11.55;5.30;;;;;;;7.72;59.32;101079.45;1765896;81;20987;-68
2021/10/24 07:45:54;;;;;;;10.25;4.90;;;;;;;7.68;59.34;101086.27;1760171;79;21040;-68
2021/10/24 07:48:22;;;;;;;11.25;5.53;;;;;;;7.64;59.49;101085.61;1764828;80;21443;-68
2021/10/24 07:50:49;;;;;;;9.75;5.37;;;;;;;7.63;59.58;101087.02;1765340;80;21523;-69
2021/10/24 07:53:19;;;;;;;11.70;5.45;;;;;;;7.58;59.78;101090.34;1725393;81;21873;-66
2021/10/24 07:55:47;;;;;;;10.80;5.80;;;;;;;7.59;59.86;101089.41;1785929;80;20946;-67
2021/10/24 07:58:19;;;;;;;10.08;5.62;;;;;;;7.59;59.90;101092.04;1774745;80;21013;-68
2021/10/24 08:00:48;;;;;;;11.20;5.53;;;;;;;7.59;60.04;101088.94;1762267;80;21006;-68
2021/10/24 08:03:17;;;;;;;13.20;5.85;;;;;;;7.62;60.02;101090.55;1739033;80;21471;-68
2021/10/24 08:05:43;;;;;;;12.88;5.67;;;;;;;7.62;59.99;101095.34;1736482;81;21776;-69
2021/10/24 08:08:11;;;;;;;13.58;5.92;;;;;;;7.63;60.07;101097.53;1706374;83;21047;-70
2021/10/24 08:10:38;;;;;;;12.35;5.30;;;;;;;7.65;60.15;101094.34;1758782;80;20956;-72
2021/10/24 08:13:05;;;;;;;11.38;5.47;;;;;;;7.67;60.07;101095.09;1759907;81;20944;-68
2021/10/24 08:15:33;;;;;;;13.62;5.97;;;;;;;7.68;60.14;101094.16;1761748;80;21380;-65
2021/10/24 08:18:00;;;;;;;12.33;5.45;;;;;;;7.73;60.19;101098.71;1761121;80;21776;-71
2021/10/24 08:20:29;;;;;;;8.25;5.15;;;;;;;7.75;60.26;101106.04;1755072;81;21523;-73
2021/10/24 08:22:55;;;;;;;13.65;6.05;;;;;;;7.73;60.25;101113.17;1754254;80;21406;-71
2021/10/24 08:25:23;;;;;;;13.03;5.20;;;;;;;7.69;60.09;101108.53;1760856;81;21000;-70
2021/10/24 08:27:50;;;;;;;11.40;5.87;;;;;;;7.68;60.13;101102.05;1761528;81;21462;-72
2021/10/24 08:30:24;;;;;;;10.13;5.95;;;;;;;7.66;60.07;101101.29;1759494;80;22296;-74
2021/10/24 08:32:54;;;;;;;10.58;5.62;;;;;;;7.64;60.17;101101.37;1774227;80;20972;-75
2021/10/24 08:35:22;;;;;;;10.48;5.50;;;;;;;7.81;60.07;101103.05;1764499;80;21454;-74
2021/10/24 08:37:50;;;;;;;13.78;5.70;;;;;;;7.87;59.97;101105.34;1734886;81;21076;-73
2021/10/24 08:40:18;;;;;;;11.20;5.60;;;;;;;7.94;59.84;101105.85;1741522;81;20993;-70
2021/10/24 08:42:51;;;;;;;12.43;5.70;;;;;;;7.97;59.77;101106.52;1761069;81;22719;-74
2021/10/24 08:45:15;;;;;;;14.98;5.85;;;;;;;8.03;59.51;101102.70;1763671;80;20933;-70
2021/10/24 08:47:42;;;;;;;11.57;6.00;;;;;;;7.97;59.48;101101.72;1743806;81;21071;-71
2021/10/24 08:50:09;;;;;;;14.68;6.60;;;;;;;7.99;59.47;101111.21;1768667;80;21447;-68
2021/10/24 08:52:39;;;;;;;12.68;7.00;;;;;;;8.08;59.43;101109.00;1764514;79;20947;-69
2021/10/24 08:55:07;;;;;;;16.65;7.97;;;;;;;8.09;59.32;101110.22;1770743;80;22536;-68
2021/10/24 08:57:34;;;;;;;14.25;7.25;;;;;;;8.12;59.32;101109.22;1782123;80;21063;-69
2021/10/24 09:00:03;;;;;;;17.67;7.15;;;;;;;8.17;59.35;101109.31;1781100;80;21067;-68
2021/10/24 09:02:51;;;;;;;17.77;8.15;;;;;;;8.22;59.14;101112.55;1784781;80;21074;-68
2021/10/24 09:05:31;;;;;;;16.65;8.48;;;;;;;8.24;58.94;101111.98;1779390;80;20976;-69
2021/10/24 09:07:57;;;;;;;16.57;8.83;;;;;;;8.29;59.04;101113.02;1782451;80;22500;-68
2021/10/24 09:10:47;;;;;;;14.70;7.72;;;;;;;8.33;58.86;101118.03;1785421;80;21366;-69
2021/10/24 09:13:16;;;;;;;20.52;10.78;;;;;;;8.33;58.85;101114.55;1784185;79;21435;-69
2021/10/24 09:15:49;;;;;;;17.48;8.20;;;;;;;8.34;58.86;101118.87;1785303;80;21072;-69
2021/10/24 09:18:17;;;;;;;14.95;8.08;;;;;;;8.37;58.78;101116.56;1752121;80;21416;-68
2021/10/24 09:20:43;;;;;;;14.58;7.65;;;;;;;8.36;58.89;101117.03;1754547;81;21793;-69
2021/10/24 09:23:13;;;;;;;12.58;6.70;;;;;;;8.43;58.54;101122.80;1766221;81;20988;-69
2021/10/24 09:25:57;;;;;;;15.30;6.95;;;;;;;8.44;58.54;101117.44;1766110;81;21027;-69
2021/10/24 09:28:26;;;;;;;10.98;5.97;;;;;;;8.46;58.49;101122.61;1765570;81;21041;-69
2021/10/24 09:31:04;;;;;;;11.15;6.75;;;;;;;8.53;58.44;101127.42;1759228;81;21008;-69
2021/10/24 09:33:47;;;;;;;13.78;6.58;;;;;;;8.58;58.31;101125.35;1744284;81;21479;-69
2021/10/24 09:36:16;;;;;;;12.50;6.40;;;;;;;8.63;58.18;101123.78;1766120;81;20999;-69
2021/10/24 09:39:08;;;;;;;10.95;5.25;;;;;;;8.69;57.93;101131.80;1741274;81;21020;-69
2021/10/24 09:41:35;;;;;;;6.35;4.28;;;;;;;8.68;57.63;101128.29;1766522;81;20939;-69
2021/10/24 09:44:15;;;;;;;9.78;5.37;;;;;;;8.67;57.46;101136.28;1766283;81;20965;-69
2021/10/24 09:46:56;;;;;;;7.67;4.40;;;;;;;8.66;57.46;101131.95;1763366;81;21821;-69
2021/10/24 09:49:23;;;;;;;9.43;5.30;;;;;;;8.67;57.32;101133.18;1766083;81;21036;-69
2021/10/24 09:51:52;;;;;;;8.95;4.67;;;;;;;8.71;56.92;101128.59;1751164;81;21464;-69
2021/10/24 09:54:22;;;;;;;8.45;4.58;;;;;;;8.68;56.87;101131.39;1734323;82;21036;-68
2021/10/24 09:56:50;;;;;;;10.55;4.78;;;;;;;8.66;56.99;101128.85;1756353;80;21071;-68
2021/10/24 09:59:19;;;;;;;8.80;4.90;;;;;;;8.64;57.02;101132.05;1779422;80;21880;-68
2021/10/24 10:01:51;;;;;;;9.50;4.85;;;;;;;8.66;57.02;101131.48;1766612;81;21012;-68
2021/10/24 10:04:19;;;;;;;8.83;4.70;;;;;;;8.67;56.97;101130.55;1766497;81;20919;-68
2021/10/24 10:06:47;;;;;;;13.03;5.67;;;;;;;8.60;56.76;101126.13;1765861;81;20970;-68
2021/10/24 10:09:14;;;;;;;9.33;4.72;;;;;;;8.56;56.87;101114.54;1766415;81;20960;-68
2021/10/24 10:11:46;;;;;;;10.58;4.55;;;;;;;8.55;56.43;101132.13;1738544;81;22849;-68
2021/10/24 10:14:32;;;;;;;6.62;4.00;;;;;;;8.51;56.43;101121.87;1766193;81;21044;-69
2021/10/24 10:17:13;;;;;;;9.90;4.45;;;;;;;8.46;56.60;101124.77;1755839;80;20993;-69
2021/10/24 10:19:42;;;;;;;11.35;4.95;;;;;;;8.42;56.63;101126.37;1767923;80;20975;-68
2021/10/24 10:22:27;;;;;;;6.83;4.25;;;;;;;8.40;56.94;101131.72;1766642;81;21095;-68
2021/10/24 10:25:00;;;;;;;10.23;5.40;;;;;;;8.34;57.96;101135.98;1750696;81;21831;-70
2021/10/24 10:27:39;;;;;;;4.75;2.85;;;;;;;8.19;58.99;101143.44;1773549;80;20933;-69
2021/10/24 10:30:32;;;;;;;5.00;3.08;;;;;;;8.04;59.26;101146.02;1752825;80;20960;-69
2021/10/24 10:33:00;;;;;;;6.65;3.17;;;;;;;7.91;59.44;101145.45;1765165;80;21961;-68
2021/10/24 10:35:27;;;;;;;5.97;3.72;;;;;;;7.73;59.74;101152.15;1766556;81;21005;-69
2021/10/24 10:38:00;;;;;;;6.78;3.60;;;;;;;7.63;59.99;101150.11;1768596;79;22847;-70
2021/10/24 10:40:33;;;;;;;7.67;5.20;;;;;;;7.61;60.55;101154.58;1763021;79;21430;-70
2021/10/24 10:43:20;;;;;;;15.30;11.97;;;;;;;7.59;60.73;101153.82;1764834;79;21001;-71
2021/10/24 10:45:51;;;;;;;24.82;18.30;;;;;;;7.61;60.96;101154.58;1766457;81;20939;-70
2021/10/24 10:48:35;;;;;;;12.98;10.38;;;;;;;7.62;60.94;101155.80;1762695;80;20939;-72
2021/10/24 10:51:15;;;;;;;5.45;3.55;;;;;;;7.67;60.85;101155.57;1743191;81;22854;-70
2021/10/24 10:53:51;;;;;;;6.00;2.75;;;;;;;7.87;60.59;101151.37;1741422;81;21061;-67
2021/10/24 10:56:31;;;;;;;4.55;2.67;;;;;;;7.99;60.39;101150.67;1778285;80;21380;-68
2021/10/24 10:59:00;;;;;;;5.42;2.92;;;;;;;8.10;60.24;101138.70;1737222;81;21019;-70
2021/10/24 11:01:34;;;;;;;5.97;3.00;;;;;;;8.20;59.76;101143.38;1731586;81;20955;-68
2021/10/24 11:04:13;;;;;;;7.85;3.98;;;;;;;8.27;59.34;101141.22;1736826;81;21830;-68
2021/10/24 11:06:50;;;;;;;38.25;27.58;;;;;;;8.37;59.51;101141.56;1745538;81;20935;-67
2021/10/24 11:09:43;;;;;;;7.90;5.30;;;;;;;8.50;59.44;101138.62;1778671;80;20957;-68
2021/10/24 11:12:32;;;;;;;7.78;4.50;;;;;;;8.61;59.06;101137.52;1739574;81;21039;-69
2021/10/24 11:15:17;;;;;;;7.58;3.22;;;;;;;8.76;58.72;101137.06;1714957;81;21090;-68
2021/10/24 11:17:49;;;;;;;5.47;3.00;;;;;;;8.95;57.93;101135.48;1778091;79;21422;-67
2021/10/24 11:20:26;;;;;;;5.92;2.80;;;;;;;9.08;57.08;101137.30;1745125;81;20979;-67
2021/10/24 11:23:00;;;;;;;4.35;2.60;;;;;;;9.09;56.45;101141.63;1742608;81;21007;-66
2021/10/24 11:25:33;;;;;;;5.75;2.72;;;;;;;9.02;56.56;101137.66;1740354;81;20960;-67
2021/10/24 11:28:07;;;;;;;3.80;2.50;;;;;;;8.93;56.65;101140.00;1766890;80;21071;-66
2021/10/24 11:30:35;;;;;;;4.58;2.65;;;;;;;8.84;56.50;101138.77;1776504;80;21840;-66
2021/10/24 11:33:02;;;;;;;3.45;1.75;;;;;;;8.76;56.43;101139.69;1762657;80;20950;-66
2021/10/24 11:35:29;;;;;;;3.40;1.77;;;;;;;8.65;55.30;101138.16;1720105;81;21495;-67
2021/10/24 11:38:00;;;;;;;4.03;1.77;;;;;;;8.54;55.29;101136.17;1772062;80;21438;-67
2021/10/24 11:40:35;;;;;;;2.27;1.42;;;;;;;8.44;55.26;101136.33;1762796;80;21041;-69